Time;durP1;ratioP1;P1;durP2;ratioP2;P2;SDS_P1;SDS_P2;PMS_P1;PMS_P2;Temp;Humidity;BMP_temperature;BMP_pressure;BME280_temperature;BME280_humidity;BME280_pressure;Samples;Min_cycle;Max_cycle;Signal;HPM_P1;HPM_P2
2021/08/18 00:00:37;;;;;;;10.68;3.60;;;;;;;;;;5034277;28;20032;-53
2021/08/18 00:03:04;;;;;;;7.65;3.50;;;;;;;;;;5035366;28;20017;-53
2021/08/18 00:05:30;;;;;;;22.23;3.95;;;;;;;;;;5035005;28;20049;-53
2021/08/18 00:07:56;;;;;;;10.43;4.32;;;;;;;;;;5035157;28;20032;-53
2021/08/18 00:10:25;;;;;;;9.65;3.70;;;;;;;;;;5035173;28;20383;-53
2021/08/18 00:12:51;;;;;;;8.93;4.35;;;;;;;;;;5034386;28;20021;-52
2021/08/18 00:15:17;;;;;;;10.48;4.22;;;;;;;;;;5035164;28;20366;-53
2021/08/18 00:17:44;;;;;;;10.77;4.28;;;;;;;;;;5035127;28;20175;-53
2021/08/18 00:20:11;;;;;;;8.48;4.32;;;;;;;;;;5034556;28;20021;-53
2021/08/18 00:22:37;;;;;;;11.75;4.75;;;;;;;;;;5034350;28;20021;-53
2021/08/18 00:25:04;;;;;;;6.47;3.35;;;;;;;;;;5034906;28;20103;-53
2021/08/18 00:27:30;;;;;;;8.88;3.88;;;;;;;;;;5034992;28;20048;-53
2021/08/18 00:29:56;;;;;;;6.95;3.40;;;;;;;;;;5034485;28;20467;-53
2021/08/18 00:32:22;;;;;;;13.90;4.43;;;;;;;;;;5033795;28;20025;-53
2021/08/18 00:34:48;;;;;;;8.65;3.63;;;;;;;;;;5034807;28;20026;-54
2021/08/18 00:37:14;;;;;;;10.38;4.35;;;;;;;;;;5034446;28;20025;-53
2021/08/18 00:39:40;;;;;;;9.60;4.05;;;;;;;;;;5034577;28;20125;-53
2021/08/18 00:42:06;;;;;;;9.05;4.03;;;;;;;;;;5033678;28;20025;-53
2021/08/18 00:44:33;;;;;;;9.93;3.85;;;;;;;;;;5034728;28;20029;-53
2021/08/18 00:46:59;;;;;;;8.73;4.25;;;;;;;;;;5033951;28;20509;-53
2021/08/18 00:49:25;;;;;;;7.60;3.83;;;;;;;;;;5033983;28;20032;-53
2021/08/18 00:51:52;;;;;;;15.07;4.90;;;;;;;;;;5020890;28;20033;-53
2021/08/18 00:54:19;;;;;;;10.10;4.32;;;;;;;;;;5032991;28;20356;-53
2021/08/18 00:56:45;;;;;;;10.35;4.63;;;;;;;;;;5032945;28;20034;-53
2021/08/18 00:59:11;;;;;;;11.82;5.85;;;;;;;;;;5027413;28;20037;-53
2021/08/18 01:01:38;;;;;;;13.95;4.25;;;;;;;;;;5013675;28;20030;-53
2021/08/18 01:04:05;;;;;;;14.52;5.40;;;;;;;;;;5014897;28;20106;-53
2021/08/18 01:06:31;;;;;;;15.10;5.57;;;;;;;;;;5013030;28;20104;-53
2021/08/18 01:08:58;;;;;;;12.40;4.50;;;;;;;;;;5013713;28;20153;-53
2021/08/18 01:11:24;;;;;;;11.60;4.43;;;;;;;;;;5013179;28;20045;-53
2021/08/18 01:13:50;;;;;;;12.50;4.90;;;;;;;;;;5014033;28;20022;-53
2021/08/18 01:16:17;;;;;;;9.23;4.93;;;;;;;;;;5013837;28;20026;-54
2021/08/18 01:18:43;;;;;;;10.90;4.45;;;;;;;;;;5014261;28;20064;-53
2021/08/18 01:21:09;;;;;;;10.00;4.55;;;;;;;;;;5013232;28;20034;-53
2021/08/18 01:23:35;;;;;;;13.05;4.63;;;;;;;;;;5013755;28;20076;-53
2021/08/18 01:26:01;;;;;;;12.65;5.43;;;;;;;;;;5013931;28;20038;-53
2021/08/18 01:28:28;;;;;;;10.68;3.60;;;;;;;;;;5013917;28;20026;-53
2021/08/18 01:30:54;;;;;;;10.60;5.30;;;;;;;;;;5013078;28;20045;-53
2021/08/18 01:33:20;;;;;;;9.30;4.43;;;;;;;;;;5013377;28;20443;-53
2021/08/18 01:35:47;;;;;;;8.98;4.63;;;;;;;;;;5022888;28;20443;-53
2021/08/18 01:38:15;;;;;;;12.35;4.63;;;;;;;;;;5033511;28;20140;-53
2021/08/18 01:40:41;;;;;;;9.30;4.28;;;;;;;;;;5032664;28;20027;-53
2021/08/18 01:43:08;;;;;;;11.93;4.85;;;;;;;;;;5032427;28;20457;-53
2021/08/18 01:45:35;;;;;;;12.60;5.00;;;;;;;;;;5033135;28;20359;-53
2021/08/18 01:48:09;;;;;;;11.45;5.05;;;;;;;;;;5033046;28;20029;-53
2021/08/18 01:50:35;;;;;;;13.07;5.55;;;;;;;;;;5032548;28;20463;-53
2021/08/18 01:53:01;;;;;;;9.38;4.70;;;;;;;;;;5033118;28;20060;-53
2021/08/18 01:55:27;;;;;;;15.73;5.82;;;;;;;;;;5033544;28;20029;-53
2021/08/18 01:57:53;;;;;;;13.32;5.35;;;;;;;;;;5032593;28;20333;-53
2021/08/18 02:00:19;;;;;;;13.90;6.13;;;;;;;;;;5032671;28;20478;-53
2021/08/18 02:02:45;;;;;;;14.20;6.13;;;;;;;;;;5032408;28;20483;-53
2021/08/18 02:05:12;;;;;;;23.35;5.68;;;;;;;;;;5032975;28;20021;-53
2021/08/18 02:07:39;;;;;;;9.68;5.18;;;;;;;;;;5033089;28;20033;-53
2021/08/18 02:10:06;;;;;;;9.05;4.57;;;;;;;;;;5032804;28;20049;-53
2021/08/18 02:12:33;;;;;;;11.43;4.97;;;;;;;;;;5032147;28;20021;-53
2021/08/18 02:14:59;;;;;;;13.90;4.85;;;;;;;;;;5033219;28;20048;-53
2021/08/18 02:17:25;;;;;;;10.32;5.15;;;;;;;;;;5031439;28;20105;-53
2021/08/18 02:19:51;;;;;;;17.45;5.38;;;;;;;;;;5032541;28;20048;-53
2021/08/18 02:22:17;;;;;;;14.90;5.50;;;;;;;;;;5032867;28;20059;-53
2021/08/18 02:24:43;;;;;;;15.75;5.45;;;;;;;;;;5032970;28;20030;-53
2021/08/18 02:27:09;;;;;;;13.27;5.50;;;;;;;;;;5032441;28;20052;-53
2021/08/18 02:29:35;;;;;;;9.60;4.85;;;;;;;;;;5026716;28;20068;-53
2021/08/18 02:32:01;;;;;;;12.40;5.72;;;;;;;;;;5032058;28;20021;-53
2021/08/18 02:34:27;;;;;;;9.93;4.20;;;;;;;;;;5032383;28;20025;-53
2021/08/18 02:36:53;;;;;;;12.55;5.15;;;;;;;;;;5032712;28;20486;-54
2021/08/18 02:39:19;;;;;;;13.73;5.40;;;;;;;;;;5031831;28;20034;-53
2021/08/18 02:41:45;;;;;;;11.85;5.38;;;;;;;;;;5032399;28;20022;-53
2021/08/18 02:44:11;;;;;;;18.55;5.80;;;;;;;;;;5032469;28;20021;-53
2021/08/18 02:46:37;;;;;;;13.30;5.65;;;;;;;;;;5033181;28;20472;-53
2021/08/18 02:49:03;;;;;;;13.30;5.32;;;;;;;;;;5031897;28;20112;-53
2021/08/18 02:51:29;;;;;;;12.02;5.72;;;;;;;;;;5031996;28;20571;-53
2021/08/18 02:53:55;;;;;;;15.13;6.15;;;;;;;;;;5032075;28;20132;-53
2021/08/18 02:56:21;;;;;;;13.02;5.60;;;;;;;;;;5032954;28;20108;-53
2021/08/18 02:58:47;;;;;;;13.48;5.85;;;;;;;;;;5032342;28;20447;-53
2021/08/18 03:01:13;;;;;;;11.98;5.43;;;;;;;;;;5032088;28;20018;-53
2021/08/18 03:03:39;;;;;;;13.20;5.30;;;;;;;;;;5032000;28;20406;-53
2021/08/18 03:06:05;;;;;;;10.30;4.80;;;;;;;;;;5032774;28;20435;-53
2021/08/18 03:08:31;;;;;;;11.07;4.78;;;;;;;;;;5032917;28;20113;-53
2021/08/18 03:10:57;;;;;;;11.27;4.97;;;;;;;;;;5031346;28;20041;-53
2021/08/18 03:13:23;;;;;;;13.50;5.85;;;;;;;;;;5032491;28;20461;-53
2021/08/18 03:15:49;;;;;;;13.13;4.95;;;;;;;;;;5032217;28;20028;-53
2021/08/18 03:18:15;;;;;;;15.18;5.75;;;;;;;;;;5032400;28;20049;-54
2021/08/18 03:20:41;;;;;;;13.35;5.88;;;;;;;;;;5031703;28;20036;-53
2021/08/18 03:23:07;;;;;;;11.55;5.50;;;;;;;;;;5033419;28;20022;-53
2021/08/18 03:25:33;;;;;;;11.88;5.57;;;;;;;;;;5035809;28;20382;-53
2021/08/18 03:28:00;;;;;;;16.33;6.15;;;;;;;;;;5036438;28;20188;-53
2021/08/18 03:30:26;;;;;;;14.60;5.15;;;;;;;;;;5034812;28;20069;-53
2021/08/18 03:32:52;;;;;;;11.52;5.18;;;;;;;;;;5035584;28;20061;-53
2021/08/18 03:35:18;;;;;;;17.63;5.90;;;;;;;;;;5035496;28;20120;-53
2021/08/18 03:37:44;;;;;;;18.15;6.05;;;;;;;;;;5035772;28;20032;-53
2021/08/18 03:40:10;;;;;;;18.85;5.47;;;;;;;;;;5035093;28;20022;-53
2021/08/18 03:42:36;;;;;;;16.23;5.90;;;;;;;;;;5035343;28;20340;-53
2021/08/18 03:45:03;;;;;;;13.43;5.53;;;;;;;;;;5035505;28;20026;-53
2021/08/18 03:47:29;;;;;;;15.40;5.90;;;;;;;;;;5035245;28;20049;-53
2021/08/18 03:49:55;;;;;;;15.68;5.72;;;;;;;;;;5034742;28;20088;-53
2021/08/18 03:52:21;;;;;;;15.05;6.13;;;;;;;;;;5035413;28;20026;-53
2021/08/18 03:54:47;;;;;;;13.45;6.05;;;;;;;;;;5035596;28;20037;-53
2021/08/18 03:57:13;;;;;;;13.40;5.55;;;;;;;;;;5035013;28;20364;-53
2021/08/18 03:59:39;;;;;;;12.52;6.03;;;;;;;;;;5034750;28;20098;-53
2021/08/18 04:02:05;;;;;;;17.00;5.70;;;;;;;;;;5034967;28;20059;-53
2021/08/18 04:04:31;;;;;;;10.73;4.97;;;;;;;;;;5035432;28;20033;-53
2021/08/18 04:06:57;;;;;;;12.13;5.80;;;;;;;;;;5035225;28;20025;-53
2021/08/18 04:09:23;;;;;;;16.02;6.90;;;;;;;;;;5034846;28;20056;-53
2021/08/18 04:11:49;;;;;;;9.23;5.05;;;;;;;;;;5034491;28;20109;-53
2021/08/18 04:14:15;;;;;;;12.57;6.32;;;;;;;;;;5028197;28;20487;-54
2021/08/18 04:16:41;;;;;;;16.83;6.82;;;;;;;;;;5027373;28;20029;-53
2021/08/18 04:19:07;;;;;;;13.40;5.72;;;;;;;;;;5033808;28;20356;-53
2021/08/18 04:21:33;;;;;;;17.48;6.57;;;;;;;;;;5034010;28;20044;-53
2021/08/18 04:23:59;;;;;;;14.23;5.45;;;;;;;;;;5033949;28;20037;-53
2021/08/18 04:26:25;;;;;;;11.98;5.90;;;;;;;;;;5031594;28;20025;-53
2021/08/18 04:28:51;;;;;;;11.40;4.97;;;;;;;;;;5021504;28;20061;-53
2021/08/18 04:31:17;;;;;;;11.80;5.68;;;;;;;;;;5033877;28;20330;-53
2021/08/18 04:33:43;;;;;;;17.88;6.10;;;;;;;;;;5034051;28;20435;-53
2021/08/18 04:36:09;;;;;;;12.68;5.30;;;;;;;;;;5032848;28;20021;-53
2021/08/18 04:38:35;;;;;;;15.68;6.15;;;;;;;;;;5034461;28;20061;-54
2021/08/18 04:41:01;;;;;;;17.83;6.57;;;;;;;;;;5033585;28;20025;-53
2021/08/18 04:43:27;;;;;;;14.35;5.80;;;;;;;;;;5033024;28;20036;-53
2021/08/18 04:45:53;;;;;;;11.35;5.53;;;;;;;;;;5033978;28;20033;-53
2021/08/18 04:48:19;;;;;;;18.80;6.20;;;;;;;;;;5034068;28;20037;-52
2021/08/18 04:50:45;;;;;;;17.50;6.82;;;;;;;;;;5033245;28;20033;-53
2021/08/18 04:53:12;;;;;;;15.43;6.43;;;;;;;;;;5034254;28;20022;-53
2021/08/18 04:55:39;;;;;;;15.15;6.63;;;;;;;;;;5034076;28;20057;-53
2021/08/18 04:58:05;;;;;;;18.25;6.57;;;;;;;;;;5033627;28;20485;-53
2021/08/18 05:00:31;;;;;;;14.05;5.57;;;;;;;;;;5033234;28;20030;-53
2021/08/18 05:02:57;;;;;;;17.65;5.90;;;;;;;;;;5032799;28;20026;-53
2021/08/18 05:05:23;;;;;;;12.30;5.85;;;;;;;;;;5032120;28;20053;-53
2021/08/18 05:07:51;;;;;;;12.23;5.22;;;;;;;;;;5033286;28;20048;-54
2021/08/18 05:10:17;;;;;;;12.73;5.65;;;;;;;;;;5032732;28;20073;-53
2021/08/18 05:12:43;;;;;;;14.35;5.65;;;;;;;;;;5031532;28;20413;-53
2021/08/18 05:15:10;;;;;;;11.98;5.65;;;;;;;;;;5033454;28;20384;-53
2021/08/18 05:17:36;;;;;;;13.32;5.85;;;;;;;;;;5032851;28;20131;-53
2021/08/18 05:20:02;;;;;;;12.00;5.40;;;;;;;;;;5032316;28;20193;-53
2021/08/18 05:22:28;;;;;;;14.23;6.82;;;;;;;;;;5033147;28;20025;-53
2021/08/18 05:24:53;;;;;;;15.65;6.85;;;;;;;;;;5032965;28;20490;-53
2021/08/18 05:27:19;;;;;;;13.05;5.57;;;;;;;;;;5031824;28;20032;-53
2021/08/18 05:29:45;;;;;;;13.98;6.47;;;;;;;;;;5032807;28;20053;-53
2021/08/18 05:32:13;;;;;;;14.90;5.88;;;;;;;;;;5033039;28;20072;-53
2021/08/18 05:34:38;;;;;;;16.65;6.07;;;;;;;;;;5032956;28;20021;-53
2021/08/18 05:37:05;;;;;;;16.70;6.03;;;;;;;;;;5032791;28;20076;-53
2021/08/18 05:39:31;;;;;;;18.42;7.30;;;;;;;;;;5033407;28;20100;-53
2021/08/18 05:41:57;;;;;;;15.05;6.47;;;;;;;;;;5032265;28;20026;-53
2021/08/18 05:44:23;;;;;;;12.60;5.80;;;;;;;;;;5032202;28;20430;-53
2021/08/18 05:46:49;;;;;;;13.43;5.82;;;;;;;;;;5032138;28;20072;-53
2021/08/18 05:49:20;;;;;;;16.73;6.45;;;;;;;;;;5031967;28;20056;-53
2021/08/18 05:51:47;;;;;;;20.25;6.53;;;;;;;;;;5032065;28;20341;-53
2021/08/18 05:54:13;;;;;;;16.90;6.85;;;;;;;;;;5032912;28;20026;-53
2021/08/18 05:56:39;;;;;;;11.18;5.68;;;;;;;;;;5032325;28;20090;-53
2021/08/18 05:59:05;;;;;;;13.38;5.40;;;;;;;;;;5032913;28;20406;-53
2021/08/18 06:01:31;;;;;;;24.98;6.95;;;;;;;;;;5031792;28;20025;-53
2021/08/18 06:03:57;;;;;;;17.55;6.80;;;;;;;;;;5032902;28;20513;-53
2021/08/18 06:06:23;;;;;;;12.95;6.22;;;;;;;;;;5033255;28;20037;-53
2021/08/18 06:08:49;;;;;;;16.00;7.15;;;;;;;;;;5032791;28;20053;-53
2021/08/18 06:11:15;;;;;;;15.88;6.45;;;;;;;;;;5032244;28;20519;-53
2021/08/18 06:13:41;;;;;;;21.63;6.78;;;;;;;;;;5032562;28;20025;-53
2021/08/18 06:16:07;;;;;;;15.43;6.00;;;;;;;;;;5031621;28;20033;-53
2021/08/18 06:18:33;;;;;;;15.93;5.65;;;;;;;;;;5033112;28;20026;-53
2021/08/18 06:20:59;;;;;;;14.30;5.97;;;;;;;;;;5032072;28;20537;-52
2021/08/18 06:23:27;;;;;;;18.83;6.82;;;;;;;;;;5032637;28;20117;-53
2021/08/18 06:25:54;;;;;;;16.30;6.15;;;;;;;;;;5032663;28;20041;-53
2021/08/18 06:28:20;;;;;;;13.27;6.43;;;;;;;;;;5033230;28;20026;-53
2021/08/18 06:30:46;;;;;;;12.38;5.70;;;;;;;;;;5031914;28;20447;-53
2021/08/18 06:33:12;;;;;;;14.27;7.00;;;;;;;;;;5032656;28;20034;-53
2021/08/18 06:35:38;;;;;;;17.08;6.88;;;;;;;;;;5024257;28;20025;-53
2021/08/18 06:38:04;;;;;;;14.32;5.97;;;;;;;;;;5012749;28;20367;-52
2021/08/18 06:40:30;;;;;;;15.02;6.72;;;;;;;;;;5011966;28;20022;-52
2021/08/18 06:42:57;;;;;;;14.90;6.47;;;;;;;;;;5011694;28;20033;-53
2021/08/18 06:45:23;;;;;;;16.25;6.22;;;;;;;;;;5013007;28;20040;-52
2021/08/18 06:47:49;;;;;;;21.92;6.82;;;;;;;;;;5013050;28;20169;-52
2021/08/18 06:50:15;;;;;;;19.55;7.03;;;;;;;;;;5012008;28;20522;-52
2021/08/18 06:52:41;;;;;;;16.98;7.65;;;;;;;;;;5027587;28;20108;-53
2021/08/18 06:55:08;;;;;;;19.02;6.88;;;;;;;;;;5032441;28;20473;-53
2021/08/18 06:57:34;;;;;;;15.27;6.15;;;;;;;;;;5032602;28;20104;-53
2021/08/18 07:00:00;;;;;;;17.38;7.35;;;;;;;;;;5036179;28;20030;-53
2021/08/18 07:02:26;;;;;;;17.95;7.10;;;;;;;;;;5035539;28;20033;-53
2021/08/18 07:04:52;;;;;;;16.30;6.63;;;;;;;;;;5036418;28;20133;-54
2021/08/18 07:07:18;;;;;;;15.43;6.50;;;;;;;;;;5034459;28;20049;-53
2021/08/18 07:09:44;;;;;;;18.38;6.55;;;;;;;;;;5036197;28;20419;-53
2021/08/18 07:12:10;;;;;;;19.63;8.45;;;;;;;;;;5035687;28;20013;-52
2021/08/18 07:14:36;;;;;;;20.20;7.28;;;;;;;;;;5036620;28;20053;-52
2021/08/18 07:17:02;;;;;;;19.80;7.07;;;;;;;;;;5036122;28;20071;-53
2021/08/18 07:19:28;;;;;;;17.85;7.38;;;;;;;;;;5036060;28;20083;-53
2021/08/18 07:21:54;;;;;;;14.93;6.47;;;;;;;;;;5035128;28;20029;-53
2021/08/18 07:24:20;;;;;;;19.08;7.35;;;;;;;;;;5035808;28;20032;-52
2021/08/18 07:26:47;;;;;;;14.95;6.93;;;;;;;;;;5035829;28;20021;-52
2021/08/18 07:29:13;;;;;;;19.48;6.60;;;;;;;;;;5035946;28;20075;-52
2021/08/18 07:31:39;;;;;;;16.73;6.78;;;;;;;;;;5035586;28;20351;-53
2021/08/18 07:34:05;;;;;;;14.88;7.10;;;;;;;;;;5035951;28;20092;-53
2021/08/18 07:36:31;;;;;;;16.15;7.03;;;;;;;;;;5035559;28;20029;-53
2021/08/18 07:38:57;;;;;;;13.82;6.68;;;;;;;;;;5035768;28;20048;-53
2021/08/18 07:41:25;;;;;;;21.40;6.78;;;;;;;;;;5034824;28;20031;-53
2021/08/18 07:43:51;;;;;;;15.32;6.05;;;;;;;;;;5034607;28;20021;-53
2021/08/18 07:46:17;;;;;;;18.20;7.18;;;;;;;;;;5034589;28;20029;-53
2021/08/18 07:48:43;;;;;;;18.05;6.20;;;;;;;;;;5035120;28;20040;-53
2021/08/18 07:51:09;;;;;;;16.55;6.90;;;;;;;;;;5034925;28;20029;-53
2021/08/18 07:53:40;;;;;;;17.23;7.45;;;;;;;;;;5035556;28;20280;-53
2021/08/18 07:56:07;;;;;;;17.25;7.43;;;;;;;;;;5035929;28;20029;-53
2021/08/18 07:58:33;;;;;;;17.83;6.97;;;;;;;;;;5035200;28;20394;-53
2021/08/18 08:00:58;;;;;;;16.15;6.70;;;;;;;;;;5033656;28;20104;-53
2021/08/18 08:03:24;;;;;;;15.57;6.90;;;;;;;;;;5033745;28;20028;-53
2021/08/18 08:05:51;;;;;;;16.83;7.15;;;;;;;;;;5033919;28;20033;-52
2021/08/18 08:08:17;;;;;;;17.75;6.68;;;;;;;;;;5034374;28;20097;-53
2021/08/18 08:10:42;;;;;;;20.00;7.22;;;;;;;;;;5034319;28;20547;-54
2021/08/18 08:13:09;;;;;;;16.55;7.30;;;;;;;;;;5035007;28;20022;-53
2021/08/18 08:15:35;;;;;;;17.50;7.05;;;;;;;;;;5035114;28;20021;-53
2021/08/18 08:18:01;;;;;;;18.45;7.47;;;;;;;;;;5034791;28;20021;-53
2021/08/18 08:20:27;;;;;;;17.73;6.45;;;;;;;;;;5034506;28;20087;-52
2021/08/18 08:22:54;;;;;;;16.98;6.93;;;;;;;;;;5034310;28;20068;-53
2021/08/18 08:25:20;;;;;;;18.33;6.72;;;;;;;;;;5034637;28;20117;-53
2021/08/18 08:27:46;;;;;;;16.30;7.40;;;;;;;;;;5034933;28;20087;-52
2021/08/18 08:30:12;;;;;;;16.45;7.88;;;;;;;;;;5034350;28;20041;-52
2021/08/18 08:32:39;;;;;;;15.02;7.13;;;;;;;;;;5033702;28;20112;-53
2021/08/18 08:35:06;;;;;;;19.65;7.22;;;;;;;;;;5034794;28;20022;-53
2021/08/18 08:37:32;;;;;;;13.68;6.95;;;;;;;;;;5034889;28;20018;-53
2021/08/18 08:39:58;;;;;;;17.35;7.57;;;;;;;;;;5034112;28;20418;-52
2021/08/18 08:42:24;;;;;;;17.88;6.65;;;;;;;;;;5033931;28;20037;-53
2021/08/18 08:44:53;;;;;;;17.35;7.10;;;;;;;;;;5034788;28;20136;-53
2021/08/18 08:47:20;;;;;;;20.27;7.07;;;;;;;;;;5034170;28;20489;-52
2021/08/18 08:49:47;;;;;;;13.43;5.90;;;;;;;;;;5033468;28;20037;-52
2021/08/18 08:52:14;;;;;;;19.30;6.45;;;;;;;;;;5033705;28;20029;-53
2021/08/18 08:54:43;;;;;;;18.35;7.13;;;;;;;;;;5034359;28;20026;-53
2021/08/18 08:57:09;;;;;;;14.00;6.55;;;;;;;;;;5034448;28;20021;-53
2021/08/18 08:59:35;;;;;;;22.35;6.75;;;;;;;;;;5033637;28;20102;-52
2021/08/18 09:02:08;;;;;;;17.77;6.43;;;;;;;;;;5033453;28;20416;-52
2021/08/18 09:04:37;;;;;;;16.48;6.47;;;;;;;;;;5033826;28;20447;-53
2021/08/18 09:07:07;;;;;;;14.55;6.57;;;;;;;;;;5034269;28;20102;-52
2021/08/18 09:09:34;;;;;;;16.55;6.97;;;;;;;;;;5033930;28;20037;-52
2021/08/18 09:12:07;;;;;;;20.35;6.22;;;;;;;;;;5033349;28;20087;-53
2021/08/18 09:14:33;;;;;;;16.35;6.30;;;;;;;;;;5033617;28;20117;-52
2021/08/18 09:16:59;;;;;;;17.15;6.28;;;;;;;;;;5033944;28;20494;-53
2021/08/18 09:19:29;;;;;;;15.57;6.75;;;;;;;;;;5033312;28;20458;-52
2021/08/18 09:21:55;;;;;;;;;;;;;;;;;;5033034;28;20092;-52
2021/08/18 09:24:23;;;;;;;14.80;5.97;;;;;;;;;;5033827;28;20391;-53
2021/08/18 09:26:51;;;;;;;15.80;6.15;;;;;;;;;;5033206;28;20451;-52
2021/08/18 09:29:27;;;;;;;14.32;5.72;;;;;;;;;;5033320;28;20033;-53
2021/08/18 09:31:53;;;;;;;16.20;6.55;;;;;;;;;;5033075;28;20503;-53
2021/08/18 09:34:19;;;;;;;16.52;6.30;;;;;;;;;;5033595;28;20029;-52
2021/08/18 09:36:45;;;;;;;17.30;6.85;;;;;;;;;;5033442;28;20417;-52
2021/08/18 09:39:21;;;;;;;14.27;6.65;;;;;;;;;;5032636;28;20030;-52
2021/08/18 09:41:48;;;;;;;16.08;6.28;;;;;;;;;;5033402;28;20017;-53
2021/08/18 09:44:14;;;;;;;13.52;5.82;;;;;;;;;;5033326;28;20045;-53
2021/08/18 09:46:40;;;;;;;12.02;6.07;;;;;;;;;;5033824;28;20026;-53
2021/08/18 09:49:07;;;;;;;13.82;6.13;;;;;;;;;;5032500;28;20577;-53
2021/08/18 09:51:34;;;;;;;13.60;5.35;;;;;;;;;;5032860;28;20046;-52
2021/08/18 09:54:11;;;;;;;9.82;5.35;;;;;;;;;;5033226;28;20478;-52
2021/08/18 09:56:41;;;;;;;12.18;5.30;;;;;;;;;;5033630;28;20033;-52
2021/08/18 09:59:07;;;;;;;11.60;5.40;;;;;;;;;;5032995;28;20030;-53
2021/08/18 10:01:34;;;;;;;16.55;6.57;;;;;;;;;;5032912;28;20072;-53
2021/08/18 10:04:00;;;;;;;12.18;5.68;;;;;;;;;;5032832;28;20449;-52
2021/08/18 10:06:27;;;;;;;15.15;5.65;;;;;;;;;;5032805;28;20116;-52
2021/08/18 10:08:55;;;;;;;11.90;5.53;;;;;;;;;;5032771;28;20033;-53
2021/08/18 10:11:22;;;;;;;17.20;6.63;;;;;;;;;;5032332;28;20402;-53
2021/08/18 10:13:48;;;;;;;12.15;5.20;;;;;;;;;;5032513;28;20028;-53
2021/08/18 10:16:14;;;;;;;11.40;5.72;;;;;;;;;;5033294;28;20025;-53
2021/08/18 10:18:41;;;;;;;11.98;5.30;;;;;;;;;;5032989;28;20029;-53
2021/08/18 10:21:17;;;;;;;12.40;5.32;;;;;;;;;;5032218;28;20095;-52
2021/08/18 10:23:47;;;;;;;11.68;4.75;;;;;;;;;;5032347;28;20517;-53
2021/08/18 10:26:13;;;;;;;;;;;;;;;;;;5033513;28;20450;-52
2021/08/18 10:28:59;;;;;;;9.80;4.57;;;;;;;;;;5032977;28;19905;-52
2021/08/18 10:31:44;;;;;;;9.30;4.35;;;;;;;;;;5031728;28;20033;-52
2021/08/18 10:34:30;;;;;;;10.80;5.18;;;;;;;;;;5039300;28;20026;-53
2021/08/18 10:36:57;;;;;;;11.50;5.40;;;;;;;;;;5039196;28;20040;-53
2021/08/18 10:39:23;;;;;;;12.10;4.35;;;;;;;;;;5038685;28;20112;-52
2021/08/18 10:41:58;;;;;;;9.15;4.32;;;;;;;;;;5038683;28;20030;-53
2021/08/18 10:44:34;;;;;;;14.90;5.05;;;;;;;;;;5039295;28;20025;-53
2021/08/18 10:47:18;;;;;;;11.73;3.88;;;;;;;;;;5039257;28;20032;-53
2021/08/18 10:49:45;;;;;;;9.02;4.35;;;;;;;;;;5038328;28;20514;-52
2021/08/18 10:52:11;;;;;;;9.85;3.78;;;;;;;;;;5038505;28;20501;-52
2021/08/18 10:54:41;;;;;;;7.80;3.78;;;;;;;;;;5039453;28;20017;-53
2021/08/18 10:57:26;;;;;;;9.00;3.60;;;;;;;;;;5038944;28;20101;-53
2021/08/18 10:59:53;;;;;;;7.25;2.97;;;;;;;;;;5038699;28;20112;-53
2021/08/18 11:02:38;;;;;;;8.73;3.78;;;;;;;;;;5038863;28;20025;-53
2021/08/18 11:05:13;;;;;;;11.63;4.30;;;;;;;;;;5039043;28;20037;-53
2021/08/18 11:08:12;;;;;;;12.02;3.85;;;;;;;;;;5039093;28;20032;-52
2021/08/18 11:10:53;;;;;;;12.55;3.38;;;;;;;;;;5036762;28;20065;-53
2021/08/18 11:13:35;;;;;;;7.90;3.72;;;;;;;;;;5039037;28;20513;-52
2021/08/18 11:16:06;;;;;;;5.53;3.25;;;;;;;;;;5038835;28;20518;-53
2021/08/18 11:18:32;;;;;;;;;;;;;;;;;;5039638;28;20033;-53
2021/08/18 11:20:58;;;;;;;5.57;2.90;;;;;;;;;;5037885;28;19905;-51
2021/08/18 11:23:25;;;;;;;7.00;3.28;;;;;;;;;;5038630;28;20030;-51
2021/08/18 11:25:56;;;;;;;5.75;3.13;;;;;;;;;;5038732;28;20039;-51
2021/08/18 11:28:22;;;;;;;;;;;;;;;;;;5039502;28;20036;-51
2021/08/18 11:30:58;;;;;;;8.43;3.55;;;;;;;;;;5037920;28;19913;-50
2021/08/18 11:33:24;;;;;;;13.77;3.42;;;;;;;;;;5039073;28;20061;-51
2021/08/18 11:35:50;;;;;;;10.02;3.72;;;;;;;;;;5038264;28;20068;-50
2021/08/18 11:38:16;;;;;;;5.70;2.95;;;;;;;;;;5038683;28;20032;-51
2021/08/18 11:40:43;;;;;;;9.50;4.05;;;;;;;;;;5037869;28;20021;-50
2021/08/18 11:43:09;;;;;;;7.55;3.05;;;;;;;;;;5037427;28;20018;-51
2021/08/18 11:45:35;;;;;;;7.65;3.15;;;;;;;;;;5034921;28;20120;-50
2021/08/18 11:48:05;;;;;;;6.10;3.58;;;;;;;;;;5035252;28;20021;-51
2021/08/18 11:50:31;;;;;;;8.77;3.78;;;;;;;;;;5034126;28;20124;-51
2021/08/18 11:53:01;;;;;;;5.32;2.92;;;;;;;;;;5035104;28;20024;-51
2021/08/18 11:55:28;;;;;;;6.72;3.38;;;;;;;;;;5035625;28;20029;-51
2021/08/18 11:57:58;;;;;;;6.05;2.97;;;;;;;;;;5035181;28;20455;-51
2021/08/18 12:00:24;;;;;;;5.28;2.85;;;;;;;;;;5034959;28;20463;-51
2021/08/18 12:02:50;;;;;;;6.88;3.05;;;;;;;;;;5034863;28;20345;-51
2021/08/18 12:05:16;;;;;;;17.25;3.38;;;;;;;;;;5034571;28;20447;-51
2021/08/18 12:07:42;;;;;;;5.35;3.05;;;;;;;;;;5034963;28;20100;-51
2021/08/18 12:10:14;;;;;;;5.57;3.25;;;;;;;;;;5034358;28;20030;-51
2021/08/18 12:12:41;;;;;;;5.70;3.08;;;;;;;;;;5034228;28;20025;-51
2021/08/18 12:15:11;;;;;;;7.68;3.08;;;;;;;;;;5034287;28;20025;-51
2021/08/18 12:17:39;;;;;;;6.70;3.33;;;;;;;;;;5034659;28;20040;-51
2021/08/18 12:20:22;;;;;;;6.70;2.47;;;;;;;;;;5034976;28;20108;-51
2021/08/18 12:22:48;;;;;;;5.82;2.50;;;;;;;;;;5034823;28;20025;-50
2021/08/18 12:25:14;;;;;;;6.63;2.63;;;;;;;;;;5034578;28;20498;-51
2021/08/18 12:27:40;;;;;;;5.20;2.83;;;;;;;;;;5034932;28;20502;-51
2021/08/18 12:30:07;;;;;;;7.60;2.85;;;;;;;;;;5034431;28;20038;-51
2021/08/18 12:32:33;;;;;;;8.30;3.53;;;;;;;;;;5034374;28;20032;-51
2021/08/18 12:35:01;;;;;;;7.70;3.78;;;;;;;;;;5034208;28;20095;-51
2021/08/18 12:37:29;;;;;;;4.10;1.88;;;;;;;;;;5034506;28;20014;-51
2021/08/18 12:39:58;;;;;;;5.90;2.47;;;;;;;;;;5033928;28;20033;-50
2021/08/18 12:42:24;;;;;;;7.68;3.08;;;;;;;;;;5034426;28;20036;-51
2021/08/18 12:45:00;;;;;;;4.53;2.70;;;;;;;;;;5034303;28;20108;-51
2021/08/18 12:47:49;;;;;;;7.72;3.33;;;;;;;;;;5034181;28;20030;-51
2021/08/18 12:50:31;;;;;;;10.60;2.90;;;;;;;;;;5033420;28;20057;-51
2021/08/18 12:52:58;;;;;;;9.77;2.50;;;;;;;;;;5018063;28;20452;-51
2021/08/18 12:55:24;;;;;;;7.75;3.00;;;;;;;;;;5024447;28;20040;-51
2021/08/18 12:57:50;;;;;;;5.95;2.72;;;;;;;;;;5033842;28;20026;-51
2021/08/18 13:00:16;;;;;;;6.82;3.00;;;;;;;;;;5029246;28;20464;-51
2021/08/18 13:02:43;;;;;;;6.22;3.03;;;;;;;;;;5014262;28;20037;-51
2021/08/18 13:05:09;;;;;;;8.63;3.10;;;;;;;;;;5009842;28;20467;-51
2021/08/18 13:07:35;;;;;;;5.32;2.88;;;;;;;;;;5012093;28;20053;-51
2021/08/18 13:10:02;;;;;;;5.88;3.03;;;;;;;;;;5011372;28;20109;-51
2021/08/18 13:12:28;;;;;;;3.42;2.33;;;;;;;;;;5013474;28;20026;-51
2021/08/18 13:14:54;;;;;;;6.30;2.50;;;;;;;;;;5014269;28;20117;-51
2021/08/18 13:17:20;;;;;;;4.78;2.92;;;;;;;;;;5014140;28;20379;-51
2021/08/18 13:19:46;;;;;;;5.07;2.33;;;;;;;;;;5013781;28;20025;-51
2021/08/18 13:22:12;;;;;;;6.45;2.53;;;;;;;;;;5013373;28;20022;-51
2021/08/18 13:24:38;;;;;;;4.72;2.83;;;;;;;;;;5013703;28;20092;-51
2021/08/18 13:27:04;;;;;;;6.85;2.85;;;;;;;;;;5014275;28;20038;-51
2021/08/18 13:29:30;;;;;;;4.18;2.22;;;;;;;;;;5013748;28;20034;-50
2021/08/18 13:31:57;;;;;;;7.78;2.55;;;;;;;;;;5013609;28;20088;-51
2021/08/18 13:34:23;;;;;;;5.43;2.83;;;;;;;;;;5013841;28;20492;-51
2021/08/18 13:36:49;;;;;;;7.68;2.67;;;;;;;;;;5030983;28;20040;-51
2021/08/18 13:39:16;;;;;;;8.30;2.42;;;;;;;;;;5032916;28;20051;-50
2021/08/18 13:41:42;;;;;;;3.90;2.10;;;;;;;;;;5033337;28;20030;-51
2021/08/18 13:44:09;;;;;;;4.30;2.50;;;;;;;;;;5033638;28;20025;-50
2021/08/18 13:46:35;;;;;;;4.65;2.55;;;;;;;;;;5033620;28;20024;-51
2021/08/18 13:49:01;;;;;;;5.03;2.30;;;;;;;;;;5033442;28;20272;-51
2021/08/18 13:51:28;;;;;;;3.67;2.03;;;;;;;;;;5032041;28;20041;-51
2021/08/18 13:53:54;;;;;;;4.90;2.78;;;;;;;;;;5033172;28;20099;-51
2021/08/18 13:56:20;;;;;;;5.53;2.17;;;;;;;;;;5033180;28;20021;-51
2021/08/18 13:58:47;;;;;;;4.18;1.88;;;;;;;;;;5033422;28;20072;-51
2021/08/18 14:01:13;;;;;;;6.53;2.03;;;;;;;;;;5032528;28;20029;-51
2021/08/18 14:03:39;;;;;;;5.82;2.50;;;;;;;;;;5033162;28;20051;-51
2021/08/18 14:06:06;;;;;;;4.45;1.85;;;;;;;;;;5032642;28;20026;-51
2021/08/18 14:08:32;;;;;;;8.02;2.25;;;;;;;;;;5033050;28;20021;-50
2021/08/18 14:10:59;;;;;;;3.50;2.38;;;;;;;;;;5032575;28;20033;-50
2021/08/18 14:13:25;;;;;;;3.67;1.77;;;;;;;;;;5032917;28;20091;-51
2021/08/18 14:15:51;;;;;;;1.73;1.42;;;;;;;;;;5032776;28;20022;-51
2021/08/18 14:18:17;;;;;;;4.13;1.58;;;;;;;;;;5033024;28;20026;-51
2021/08/18 14:20:43;;;;;;;4.05;2.03;;;;;;;;;;5031841;28;20036;-51
2021/08/18 14:23:09;;;;;;;4.30;1.85;;;;;;;;;;5033041;28;20025;-51
2021/08/18 14:25:35;;;;;;;3.72;1.33;;;;;;;;;;5028152;28;20132;-51
2021/08/18 14:28:01;;;;;;;3.33;2.00;;;;;;;;;;5032007;28;20151;-51
2021/08/18 14:30:27;;;;;;;2.20;1.42;;;;;;;;;;5031803;28;20037;-51
2021/08/18 14:32:53;;;;;;;2.17;1.30;;;;;;;;;;5031642;28;20029;-51
2021/08/18 14:35:20;;;;;;;1.45;1.25;;;;;;;;;;5032327;28;20026;-51